KC8C Weather Reports


time (UTC)temp
C
wind
direction
speed
KPH
gust
KPH
rain 1hr
cm
rain 24hr
cm
rain mn
cm
humidity
%
barometer
mb
20260503180050 17 231 11.3 30.6 0.00 0.05 0.00 39 1012.4
20260503175548 17 225 11.3 27.4 0.00 0.05 0.00 39 1012.5
20260503175050 16 269 14.5 27.4 0.00 0.05 0.00 39 1012.6
20260503174545 16 231 11.3 24.1 0.00 0.05 0.00 40 1012.5
20260503174044 16 215 9.7 30.6 0.00 0.05 0.00 40 1012.7
20260503173543 16 225 11.3 30.6 0.00 0.05 0.00 41 1012.8
20260503173109 15 225 6.4 27.4 0.00 0.05 0.00 41 1012.9
20260503172545 15 265 11.3 27.4 0.00 0.05 0.00 40 1013.0
20260503172042 16 252 8.0 25.7 0.00 0.05 0.00 40 1013.3
20260503171542 16 244 12.9 25.7 0.00 0.05 0.00 40 1013.2
20260503171038 15 98 9.7 24.1 0.00 0.05 0.00 42 1013.3
20260503170536 15 265 12.9 24.1 0.00 0.05 0.00 41 1013.4
20260503150521 14 268 12.9 27.4 0.00 0.05 0.00 46 1014.3
20260503131052 8 269 11.3 24.1 0.00 0.05 0.00 54 1014.7
20260503130551 8 297 9.7 24.1 0.00 0.05 0.00 54 1014.7
20260503110528 1 360 1.6 4.8 0.00 0.05 0.00 69 1015.1
20260503090512 2 256 1.6 6.4 0.00 0.05 0.00 64 1015.9
20260503081508 3 254 3.2 6.4 0.00 0.05 0.00 63 1016.1
20260503081008 3 254 3.2 6.4 0.00 0.05 0.00 63 1016.0
20260503080509 3 254 3.2 8.0 0.00 0.05 0.00 63 1016.1
20260503072506 3 254 3.2 6.4 0.00 0.05 0.00 64 1016.2
20260503072006 3 253 1.6 6.4 0.00 0.05 0.00 64 1016.2
20260503071510 3 258 3.2 6.4 0.00 0.05 0.00 64 1016.2
20260503071006 2 250 3.2 8.0 0.00 0.05 0.00 64 1016.2
20260503070507 2 255 3.2 9.7 0.00 0.05 0.00 65 1016.2
20260503055056 3 360 1.6 3.2 0.00 0.05 0.00 63 1016.8
20260503054559 3 252 0.0 6.4 0.00 0.05 0.00 64 1016.8
20260503054055 3 252 1.6 8.0 0.00 0.05 0.00 63 1016.8
20260503053554 3 360 1.6 4.8 0.00 0.05 0.00 63 1016.8
20260503053054 3 360 1.6 4.8 0.00 0.05 0.00 63 1016.9
20260503052554 3 360 1.6 4.8 0.00 0.05 0.00 63 1016.9
20260503052054 3 360 1.6 8.0 0.00 0.05 0.00 62 1016.9
20260503051554 3 253 1.6 6.4 0.00 0.05 0.00 62 1016.9
20260503051051 3 360 1.6 4.8 0.00 0.05 0.00 62 1017.0
20260503050551 3 253 1.6 6.4 0.00 0.05 0.00 62 1016.9
20260503050051 3 254 1.6 6.4 0.00 0.05 0.00 62 1017.0
20260503045557 3 254 1.6 6.4 0.00 0.05 0.00 62 1017.1
20260503045051 3 255 1.6 4.8 0.00 0.05 0.00 62 1017.1
20260503044549 3 255 1.6 6.4 0.00 0.05 0.00 62 1017.1
20260503044048 3 256 1.6 6.4 0.00 0.05 0.00 62 1017.1
20260503043547 3 256 1.6 6.4 0.00 0.05 0.00 62 1017.1
20260503043048 3 256 1.6 6.4 0.00 0.05 0.00 61 1017.1
20260503042547 3 257 1.6 4.8 0.00 0.05 0.00 61 1017.0
20260503042046 4 257 0.0 4.8 0.00 0.05 0.00 61 1017.1
20260503041553 4 257 1.6 4.8 0.00 0.05 0.00 61 1017.1
20260503041044 4 257 0.0 4.8 0.00 0.05 0.00 60 1017.1
20260503040543 4 257 0.0 4.8 0.00 0.05 0.00 60 1017.1
20260503040053 4 257 0.0 4.8 0.00 0.05 0.00 60 1017.2
20260503035542 4 256 0.0 4.8 0.00 0.05 0.05 60 1017.3
20260503035045 4 256 0.0 4.8 0.00 0.05 0.05 59 1017.3
20260503034559 4 256 1.6 4.8 0.00 0.05 0.05 59 1017.3
20260503034041 4 255 1.6 4.8 0.00 0.05 0.05 59 1017.2
20260503033541 4 254 1.6 8.0 0.00 0.05 0.05 59 1017.3
20260503033044 4 360 3.2 8.0 0.00 0.05 0.05 59 1017.3
20260503032541 4 265 1.6 6.4 0.00 0.05 0.05 59 1017.4
20260503032041 4 360 1.6 6.4 0.00 0.05 0.05 59 1017.3
20260503031543 4 360 1.6 4.8 0.00 0.05 0.05 59 1017.4
20260503031040 4 360 3.2 6.4 0.00 0.05 0.05 59 1017.4
20260503030540 4 360 1.6 6.4 0.00 0.05 0.05 59 1017.4
20260503030051 4 275 1.6 4.8 0.00 0.05 0.05 59 1017.4
20260503025540 4 275 1.6 4.8 0.00 0.05 0.05 59 1017.4
20260503025040 4 275 0.0 4.8 0.00 0.05 0.05 60 1017.5
20260503024540 4 275 0.0 4.8 0.00 0.05 0.05 59 1017.6
20260503024042 4 275 1.6 4.8 0.00 0.05 0.05 60 1017.6
20260503023539 4 360 1.6 4.8 0.00 0.05 0.05 60 1017.8
20260503023041 3 360 0.0 3.2 0.00 0.05 0.05 60 1017.8
20260503022540 3 360 0.0 3.2 0.00 0.05 0.05 60 1017.8
20260503022042 3 275 1.6 3.2 0.00 0.05 0.05 60 1017.8
20260503021543 3 276 0.0 3.2 0.00 0.05 0.05 61 1017.8
20260503021040 4 276 0.0 3.2 0.00 0.05 0.05 61 1017.8
20260503020540 4 276 0.0 0.0 0.00 0.05 0.05 61 1017.8
20260503020041 4 275 0.0 0.0 0.00 0.05 0.05 61 1017.7
20260503015540 4 360 0.0 1.6 0.00 0.05 0.05 61 1017.7
20260503015039 4 276 0.0 1.6 0.00 0.05 0.05 61 1017.7
20260503014542 4 360 0.0 3.2 0.00 0.05 0.05 61 1017.7
20260503014042 5 360 0.0 3.2 0.00 0.05 0.05 61 1017.7
20260503013538 5 275 0.0 1.6 0.00 0.05 0.05 61 1017.7
20260503013038 5 275 0.0 0.0 0.00 0.05 0.05 60 1017.6
20260503012538 5 360 0.0 0.0 0.00 0.05 0.05 60 1017.5
20260503012038 5 360 0.0 0.0 0.00 0.05 0.05 59 1017.5
20260503011537 5 360 0.0 0.0 0.00 0.05 0.05 59 1017.5
20260503011037 5 360 0.0 0.0 0.00 0.05 0.05 58 1017.4
20260503010540 6 275 0.0 1.6 0.00 0.05 0.05 57 1017.5
20260503010041 6 277 0.0 1.6 0.00 0.05 0.05 56 1017.5
20260503005539 6 276 0.0 0.0 0.00 0.05 0.05 56 1017.5
20260503005040 6 360 0.0 0.0 0.00 0.05 0.05 55 1017.4
20260503004536 7 360 0.0 0.0 0.00 0.05 0.05 54 1017.4
20260503004036 7 360 0.0 1.6 0.00 0.05 0.05 53 1017.3
20260503003536 7 277 0.0 3.2 0.00 0.05 0.05 52 1017.4
20260503003038 7 277 0.0 4.8 0.00 0.05 0.05 50 1017.3
20260503002536 7 360 0.0 3.2 0.00 0.05 0.05 50 1017.3
20260503002036 7 275 0.0 3.2 0.00 0.05 0.05 49 1017.3
20260503001536 7 276 0.0 3.2 0.00 0.05 0.05 48 1017.3
20260503001036 8 277 0.0 6.4 0.00 0.05 0.05 49 1017.4
20260503000535 8 277 1.6 6.4 0.00 0.05 0.05 47 1017.4
20260503000035 8 277 1.6 8.0 0.00 0.05 0.05 48 1017.4
20260502235536 8 277 1.6 8.0 0.00 0.05 0.05 46 1017.4
20260502235034 8 263 3.2 6.4 0.00 0.05 0.05 46 1017.5
20260502234533 8 262 3.2 11.3 0.00 0.05 0.05 45 1017.5
20260502234035 8 261 3.2 14.5 0.00 0.05 0.05 45 1017.6
20260502233532 8 298 1.6 14.5 0.00 0.05 0.05 47 1017.6
20260502233036 8 298 4.8 12.9 0.00 0.05 0.05 45 1017.7
20260502232532 8 280 3.2 9.7 0.00 0.05 0.05 44 1017.6
20260502232032 8 306 1.6 8.0 0.00 0.05 0.05 45 1017.6
20260502231533 8 321 0.0 16.1 0.00 0.05 0.05 46 1017.5
20260502231032 8 279 6.4 16.1 0.00 0.05 0.05 46 1017.5
20260502230531 8 282 3.2 12.9 0.00 0.05 0.05 45 1017.6
20260502230031 8 269 3.2 14.5 0.03 0.05 0.05 47 1017.6
20260502225530 8 281 1.6 17.7 0.05 0.05 0.05 47 1017.6
20260502225030 8 268 8.0 14.5 0.05 0.05 0.05 44 1017.7
20260502224530 8 288 3.2 16.1 0.05 0.05 0.05 45 1017.6
20260502224033 8 306 3.2 16.1 0.05 0.05 0.05 45 1017.6
20260502223530 8 266 8.0 16.1 0.05 0.05 0.05 45 1017.6
20260502223033 8 261 3.2 16.1 0.05 0.05 0.05 46 1017.6
20260502222530 8 296 6.4 16.1 0.05 0.05 0.05 45 1017.6
20260502222030 8 263 4.8 16.1 0.05 0.05 0.05 46 1017.7
20260502221528 8 287 6.4 17.7 0.05 0.05 0.05 45 1017.7
20260502221028 8 261 6.4 17.7 0.05 0.05 0.05 45 1017.7
20260502220528 8 38 3.2 17.7 0.05 0.05 0.05 46 1017.8
20260502220031 8 290 9.7 17.7 0.03 0.03 0.03 45 1017.7
20260502215527 8 255 4.8 14.5 0.00 0.00 0.00 46 1017.7
20260502215027 8 325 6.4 19.3 0.00 0.00 0.00 44 1017.8
20260502214531 8 277 9.7 19.3 0.00 0.00 0.00 44 1017.8
20260502214028 8 289 3.2 8.0 0.00 0.00 0.00 48 1017.7
20260502213530 8 311 3.2 12.9 0.00 0.00 0.00 47 1017.7
20260502213027 8 344 1.6 12.9 0.00 0.00 0.00 48 1017.7
20260502212529 8 328 3.2 9.7 0.00 0.00 0.00 47 1017.8
20260502212027 8 260 4.8 12.9 0.00 0.00 0.00 48 1017.7
20260502211541 8 278 3.2 16.1 0.00 0.00 0.00 48 1017.8
20260502211025 8 295 6.4 17.7 0.00 0.00 0.00 47 1017.8
20260502210525 8 18 8.0 12.9 0.00 0.00 0.00 46 1017.8
20260502210025 8 279 4.8 14.5 0.00 0.00 0.00 46 1017.8
20260502205525 8 301 8.0 14.5 0.00 0.00 0.00 46 1017.9
20260502205024 8 274 3.2 12.9 0.00 0.00 0.00 48 1017.8
20260502204526 8 273 1.6 12.9 0.00 0.00 0.00 48 1017.9
20260502204024 8 277 4.8 17.7 0.00 0.00 0.00 46 1017.9
20260502203522 8 281 8.0 19.3 0.00 0.00 0.00 46 1017.9
20260502203023 8 283 6.4 19.3 0.00 0.00 0.00 45 1018.1
20260502202522 8 179 4.8 16.1 0.00 0.00 0.00 48 1018.0
20260502202022 9 320 4.8 16.1 0.00 0.00 0.00 47 1018.1
20260502201521 8 275 4.8 16.1 0.00 0.00 0.00 47 1018.1
20260502201021 8 279 6.4 17.7 0.00 0.00 0.00 46 1018.2
20260502200525 8 296 4.8 22.5 0.00 0.00 0.00 46 1018.3
20260502200020 9 360 9.7 22.5 0.00 0.00 0.00 45 1018.3
20260502195521 9 360 4.8 16.1 0.00 0.00 0.00 44 1018.4
20260502195018 9 355 6.4 16.1 0.00 0.00 0.00 49 1018.4
20260502194517 8 300 6.4 16.1 0.00 0.00 0.00 46 1018.5
20260502194018 8 323 6.4 16.1 0.00 0.00 0.00 51 1018.5
20260502193517 8 323 3.2 12.9 0.00 0.00 0.00 47 1018.5
20260502193017 8 298 4.8 16.1 0.00 0.00 0.00 49 1018.5
20260502192520 8 246 4.8 20.9 0.00 0.00 0.00 46 1018.7
20260502192016 8 288 4.8 20.9 0.00 0.00 0.00 45 1018.7
20260502191522 8 311 4.8 19.3 0.00 0.00 0.00 46 1018.7
20260502191022 8 304 8.0 19.3 0.00 0.00 0.00 46 1018.7
20260502190517 8 227 4.8 16.1 0.00 0.00 0.00 45 1018.7
20260502190027 8 290 1.6 16.1 0.00 0.00 0.00 50 1018.8
20260502185518 8 225 1.6 16.1 0.00 0.00 0.00 48 1018.9
20260502185015 8 311 3.2 16.1 0.00 0.00 0.00 47 1018.9
20260502184516 8 348 3.2 16.1 0.00 0.00 0.00 47 1018.9
20260502184021 8 261 6.4 17.7 0.00 0.00 0.00 46 1018.9
20260502183515 8 300 8.0 17.7 0.00 0.00 0.00 45 1019.0
20260502183014 8 266 4.8 12.9 0.00 0.00 0.00 47 1018.9
20260502182517 8 292 4.8 12.9 0.00 0.00 0.00 48 1018.9
20260502182013 8 61 1.6 12.9 0.00 0.00 0.00 46 1019.0
20260502181514 8 313 3.2 12.9 0.00 0.00 0.00 46 1019.0
20260502181017 8 293 4.8 14.5 0.00 0.00 0.00 46 1019.1
20260502180514 8 311 1.6 19.3 0.00 0.00 0.00 44 1019.2